sensor_id;sensor_type;location;lat;lon;timestamp;temperature;humidity
59307;DHT22;47983;53.016;-2.260;2023-12-22T00:00:00;9.70;99.90
59307;DHT22;47983;53.016;-2.260;2023-12-22T00:02:31;9.70;99.90
59307;DHT22;47983;53.016;-2.260;2023-12-22T00:04:59;9.70;99.90
59307;DHT22;47983;53.016;-2.260;2023-12-22T00:07:27;9.80;99.90
59307;DHT22;47983;53.016;-2.260;2023-12-22T00:09:55;9.80;99.90
59307;DHT22;47983;53.016;-2.260;2023-12-22T00:12:25;9.80;99.90
59307;DHT22;47983;53.016;-2.260;2023-12-22T00:14:53;9.80;99.90
59307;DHT22;47983;53.016;-2.260;2023-12-22T00:17:21;9.80;99.90
59307;DHT22;47983;53.016;-2.260;2023-12-22T00:19:48;9.80;99.90
59307;DHT22;47983;53.016;-2.260;2023-12-22T00:22:16;9.80;99.90
59307;DHT22;47983;53.016;-2.260;2023-12-22T00:24:44;9.70;99.90
59307;DHT22;47983;53.016;-2.260;2023-12-22T00:27:12;9.70;99.90
59307;DHT22;47983;53.016;-2.260;2023-12-22T00:29:40;9.70;99.90
59307;DHT22;47983;53.016;-2.260;2023-12-22T00:32:08;9.70;99.90
59307;DHT22;47983;53.016;-2.260;2023-12-22T00:34:37;9.70;99.90
59307;DHT22;47983;53.016;-2.260;2023-12-22T00:37:05;9.70;99.90
59307;DHT22;47983;53.016;-2.260;2023-12-22T00:39:33;9.70;99.90
59307;DHT22;47983;53.016;-2.260;2023-12-22T00:42:01;9.70;99.90
59307;DHT22;47983;53.016;-2.260;2023-12-22T00:44:29;9.70;99.90
59307;DHT22;47983;53.016;-2.260;2023-12-22T00:47:00;9.70;99.90
59307;DHT22;47983;53.016;-2.260;2023-12-22T00:49:28;9.70;99.90
59307;DHT22;47983;53.016;-2.260;2023-12-22T00:51:55;9.70;99.90
59307;DHT22;47983;53.016;-2.260;2023-12-22T00:54:23;9.70;99.90
59307;DHT22;47983;53.016;-2.260;2023-12-22T00:56:52;9.70;99.90
59307;DHT22;47983;53.016;-2.260;2023-12-22T00:59:20;9.70;99.90
59307;DHT22;47983;53.016;-2.260;2023-12-22T01:01:48;9.70;99.90
59307;DHT22;47983;53.016;-2.260;2023-12-22T01:04:16;9.70;99.90
59307;DHT22;47983;53.016;-2.260;2023-12-22T01:06:44;9.70;99.90
59307;DHT22;47983;53.016;-2.260;2023-12-22T01:09:12;9.70;99.90
59307;DHT22;47983;53.016;-2.260;2023-12-22T01:11:42;9.70;99.90
59307;DHT22;47983;53.016;-2.260;2023-12-22T01:14:09;9.70;99.90
59307;DHT22;47983;53.016;-2.260;2023-12-22T01:16:39;9.70;99.90
59307;DHT22;47983;53.016;-2.260;2023-12-22T01:19:07;9.70;99.90
59307;DHT22;47983;53.016;-2.260;2023-12-22T01:21:35;9.60;99.90
59307;DHT22;47983;53.016;-2.260;2023-12-22T01:24:03;9.60;99.90
59307;DHT22;47983;53.016;-2.260;2023-12-22T01:26:30;9.60;99.90
59307;DHT22;47983;53.016;-2.260;2023-12-22T01:28:58;9.50;99.90
59307;DHT22;47983;53.016;-2.260;2023-12-22T01:31:26;9.40;99.90
59307;DHT22;47983;53.016;-2.260;2023-12-22T01:33:55;9.40;99.90
59307;DHT22;47983;53.016;-2.260;2023-12-22T01:36:23;9.30;99.90
59307;DHT22;47983;53.016;-2.260;2023-12-22T01:38:51;9.30;99.90
59307;DHT22;47983;53.016;-2.260;2023-12-22T01:41:19;9.30;99.90
59307;DHT22;47983;53.016;-2.260;2023-12-22T01:43:46;9.20;99.90
59307;DHT22;47983;53.016;-2.260;2023-12-22T01:46:14;9.10;99.90
59307;DHT22;47983;53.016;-2.260;2023-12-22T01:48:43;9.10;99.90
59307;DHT22;47983;53.016;-2.260;2023-12-22T01:51:11;9.10;99.90
59307;DHT22;47983;53.016;-2.260;2023-12-22T01:53:39;9.00;99.90
59307;DHT22;47983;53.016;-2.260;2023-12-22T01:56:07;9.00;99.90
59307;DHT22;47983;53.016;-2.260;2023-12-22T01:58:37;9.00;99.90
59307;DHT22;47983;53.016;-2.260;2023-12-22T02:01:17;9.00;99.90
59307;DHT22;47983;53.016;-2.260;2023-12-22T02:03:45;9.00;99.90
59307;DHT22;47983;53.016;-2.260;2023-12-22T02:06:13;9.00;99.90
59307;DHT22;47983;53.016;-2.260;2023-12-22T02:08:40;9.00;99.90
59307;DHT22;47983;53.016;-2.260;2023-12-22T02:11:08;9.00;99.90
59307;DHT22;47983;53.016;-2.260;2023-12-22T02:13:36;9.00;99.90
59307;DHT22;47983;53.016;-2.260;2023-12-22T02:18:59;9.00;99.90
59307;DHT22;47983;53.016;-2.260;2023-12-22T02:21:32;9.00;99.90
59307;DHT22;47983;53.016;-2.260;2023-12-22T02:24:00;9.00;99.90
59307;DHT22;47983;53.016;-2.260;2023-12-22T02:26:35;9.00;99.90
59307;DHT22;47983;53.016;-2.260;2023-12-22T02:29:04;9.00;99.90
59307;DHT22;47983;53.016;-2.260;2023-12-22T02:31:39;9.00;99.90
59307;DHT22;47983;53.016;-2.260;2023-12-22T02:34:16;9.00;99.90
59307;DHT22;47983;53.016;-2.260;2023-12-22T02:36:47;9.00;99.90
59307;DHT22;47983;53.016;-2.260;2023-12-22T02:39:18;9.00;99.90
59307;DHT22;47983;53.016;-2.260;2023-12-22T02:41:46;9.00;99.90
59307;DHT22;47983;53.016;-2.260;2023-12-22T02:44:14;9.00;99.90
59307;DHT22;47983;53.016;-2.260;2023-12-22T02:46:42;9.00;99.90
59307;DHT22;47983;53.016;-2.260;2023-12-22T02:49:11;9.00;99.90
59307;DHT22;47983;53.016;-2.260;2023-12-22T02:51:41;9.00;99.90
59307;DHT22;47983;53.016;-2.260;2023-12-22T02:54:09;9.10;99.90
59307;DHT22;47983;53.016;-2.260;2023-12-22T02:56:36;9.10;99.90
59307;DHT22;47983;53.016;-2.260;2023-12-22T02:59:04;9.10;99.90
59307;DHT22;47983;53.016;-2.260;2023-12-22T03:01:32;9.10;99.90
59307;DHT22;47983;53.016;-2.260;2023-12-22T03:04:00;9.10;99.90
59307;DHT22;47983;53.016;-2.260;2023-12-22T03:06:28;9.20;99.90
59307;DHT22;47983;53.016;-2.260;2023-12-22T03:08:56;9.20;99.90
59307;DHT22;47983;53.016;-2.260;2023-12-22T03:11:24;9.20;99.90
59307;DHT22;47983;53.016;-2.260;2023-12-22T03:13:53;9.20;99.90
59307;DHT22;47983;53.016;-2.260;2023-12-22T03:16:21;9.20;99.90
59307;DHT22;47983;53.016;-2.260;2023-12-22T03:18:48;9.20;99.90
59307;DHT22;47983;53.016;-2.260;2023-12-22T03:21:17;9.30;99.90
59307;DHT22;47983;53.016;-2.260;2023-12-22T03:23:46;9.30;99.90
59307;DHT22;47983;53.016;-2.260;2023-12-22T03:26:14;9.30;99.90
59307;DHT22;47983;53.016;-2.260;2023-12-22T03:28:42;9.30;99.90
59307;DHT22;47983;53.016;-2.260;2023-12-22T03:31:10;9.40;99.90
59307;DHT22;47983;53.016;-2.260;2023-12-22T03:33:38;9.40;99.90
59307;DHT22;47983;53.016;-2.260;2023-12-22T03:36:06;9.40;99.90
59307;DHT22;47983;53.016;-2.260;2023-12-22T03:38:34;9.40;99.90
59307;DHT22;47983;53.016;-2.260;2023-12-22T03:41:01;9.50;99.90
59307;DHT22;47983;53.016;-2.260;2023-12-22T03:43:29;9.50;99.90
59307;DHT22;47983;53.016;-2.260;2023-12-22T03:45:59;9.50;99.90
59307;DHT22;47983;53.016;-2.260;2023-12-22T03:48:27;9.50;99.90
59307;DHT22;47983;53.016;-2.260;2023-12-22T03:50:55;9.50;99.90
59307;DHT22;47983;53.016;-2.260;2023-12-22T03:53:22;9.60;99.90
59307;DHT22;47983;53.016;-2.260;2023-12-22T03:55:50;9.60;99.90
59307;DHT22;47983;53.016;-2.260;2023-12-22T03:58:18;9.70;99.90
59307;DHT22;47983;53.016;-2.260;2023-12-22T04:00:46;9.70;99.90
59307;DHT22;47983;53.016;-2.260;2023-12-22T04:03:14;9.70;99.90
59307;DHT22;47983;53.016;-2.260;2023-12-22T04:05:43;9.70;99.90
59307;DHT22;47983;53.016;-2.260;2023-12-22T04:08:12;9.70;99.90
59307;DHT22;47983;53.016;-2.260;2023-12-22T04:10:40;9.70;99.90
59307;DHT22;47983;53.016;-2.260;2023-12-22T04:13:08;9.70;99.90
59307;DHT22;47983;53.016;-2.260;2023-12-22T04:15:36;9.70;99.90
59307;DHT22;47983;53.016;-2.260;2023-12-22T04:18:04;9.70;99.90
59307;DHT22;47983;53.016;-2.260;2023-12-22T04:20:32;9.80;99.90
59307;DHT22;47983;53.016;-2.260;2023-12-22T04:23:00;9.80;99.90
59307;DHT22;47983;53.016;-2.260;2023-12-22T04:25:28;9.70;99.90
59307;DHT22;47983;53.016;-2.260;2023-12-22T04:27:56;9.80;99.90
59307;DHT22;47983;53.016;-2.260;2023-12-22T04:30:25;9.70;99.90
59307;DHT22;47983;53.016;-2.260;2023-12-22T04:32:58;9.80;99.90
59307;DHT22;47983;53.016;-2.260;2023-12-22T04:35:26;9.80;99.90
59307;DHT22;47983;53.016;-2.260;2023-12-22T04:37:54;9.80;99.90
59307;DHT22;47983;53.016;-2.260;2023-12-22T04:40:22;9.80;99.90
59307;DHT22;47983;53.016;-2.260;2023-12-22T04:42:50;9.80;99.90
59307;DHT22;47983;53.016;-2.260;2023-12-22T04:45:20;9.80;99.90
59307;DHT22;47983;53.016;-2.260;2023-12-22T04:47:49;9.90;99.90
59307;DHT22;47983;53.016;-2.260;2023-12-22T04:50:18;9.90;99.90
59307;DHT22;47983;53.016;-2.260;2023-12-22T04:52:46;9.90;99.90
59307;DHT22;47983;53.016;-2.260;2023-12-22T04:55:14;10.00;99.90
59307;DHT22;47983;53.016;-2.260;2023-12-22T04:57:43;10.00;99.90
59307;DHT22;47983;53.016;-2.260;2023-12-22T05:00:11;10.00;99.90
59307;DHT22;47983;53.016;-2.260;2023-12-22T05:02:39;10.10;99.90
59307;DHT22;47983;53.016;-2.260;2023-12-22T05:05:06;10.10;99.90
59307;DHT22;47983;53.016;-2.260;2023-12-22T05:07:36;10.10;99.90
59307;DHT22;47983;53.016;-2.260;2023-12-22T05:10:04;10.10;99.90
59307;DHT22;47983;53.016;-2.260;2023-12-22T05:12:32;10.10;99.90
59307;DHT22;47983;53.016;-2.260;2023-12-22T05:15:00;10.10;99.90
59307;DHT22;47983;53.016;-2.260;2023-12-22T05:17:28;10.10;99.90
59307;DHT22;47983;53.016;-2.260;2023-12-22T05:19:56;10.10;99.90
59307;DHT22;47983;53.016;-2.260;2023-12-22T05:22:24;10.10;99.90
59307;DHT22;47983;53.016;-2.260;2023-12-22T05:24:52;10.10;99.90
59307;DHT22;47983;53.016;-2.260;2023-12-22T05:27:20;10.10;99.90
59307;DHT22;47983;53.016;-2.260;2023-12-22T05:29:47;10.20;99.90
59307;DHT22;47983;53.016;-2.260;2023-12-22T05:32:15;10.30;99.90
59307;DHT22;47983;53.016;-2.260;2023-12-22T05:34:43;10.30;99.90
59307;DHT22;47983;53.016;-2.260;2023-12-22T05:37:11;10.30;99.90
59307;DHT22;47983;53.016;-2.260;2023-12-22T05:39:39;10.30;99.90
59307;DHT22;47983;53.016;-2.260;2023-12-22T05:42:07;10.30;99.90
59307;DHT22;47983;53.016;-2.260;2023-12-22T05:44:35;10.30;99.90
59307;DHT22;47983;53.016;-2.260;2023-12-22T05:47:03;10.30;99.90
59307;DHT22;47983;53.016;-2.260;2023-12-22T05:49:31;10.30;99.90
59307;DHT22;47983;53.016;-2.260;2023-12-22T05:51:59;10.30;99.90
59307;DHT22;47983;53.016;-2.260;2023-12-22T05:54:27;10.30;99.90
59307;DHT22;47983;53.016;-2.260;2023-12-22T05:56:55;10.30;99.90
59307;DHT22;47983;53.016;-2.260;2023-12-22T05:59:26;10.30;99.90
59307;DHT22;47983;53.016;-2.260;2023-12-22T06:01:55;10.20;99.90
59307;DHT22;47983;53.016;-2.260;2023-12-22T06:04:23;10.00;99.90
59307;DHT22;47983;53.016;-2.260;2023-12-22T06:06:52;9.90;99.90
59307;DHT22;47983;53.016;-2.260;2023-12-22T06:09:21;9.70;99.90
59307;DHT22;47983;53.016;-2.260;2023-12-22T06:11:49;9.60;99.90
59307;DHT22;47983;53.016;-2.260;2023-12-22T06:14:17;9.60;99.90
59307;DHT22;47983;53.016;-2.260;2023-12-22T06:16:45;9.50;99.90
59307;DHT22;47983;53.016;-2.260;2023-12-22T06:19:13;9.40;99.90
59307;DHT22;47983;53.016;-2.260;2023-12-22T06:21:41;9.40;99.90
59307;DHT22;47983;53.016;-2.260;2023-12-22T06:24:09;9.40;99.90
59307;DHT22;47983;53.016;-2.260;2023-12-22T06:26:37;9.40;99.90
59307;DHT22;47983;53.016;-2.260;2023-12-22T06:29:05;9.30;99.90
59307;DHT22;47983;53.016;-2.260;2023-12-22T06:31:33;9.30;99.90
59307;DHT22;47983;53.016;-2.260;2023-12-22T06:34:01;9.30;99.90
59307;DHT22;47983;53.016;-2.260;2023-12-22T06:36:31;9.30;99.90
59307;DHT22;47983;53.016;-2.260;2023-12-22T06:38:59;9.30;99.90
59307;DHT22;47983;53.016;-2.260;2023-12-22T06:41:30;9.30;99.90
59307;DHT22;47983;53.016;-2.260;2023-12-22T06:43:58;9.30;99.90
59307;DHT22;47983;53.016;-2.260;2023-12-22T06:46:30;9.30;99.90
59307;DHT22;47983;53.016;-2.260;2023-12-22T06:48:59;9.20;99.90
59307;DHT22;47983;53.016;-2.260;2023-12-22T06:51:31;9.20;99.90
59307;DHT22;47983;53.016;-2.260;2023-12-22T06:53:59;9.20;99.90
59307;DHT22;47983;53.016;-2.260;2023-12-22T06:56:34;9.20;99.90
59307;DHT22;47983;53.016;-2.260;2023-12-22T06:59:03;9.20;99.90
59307;DHT22;47983;53.016;-2.260;2023-12-22T07:01:33;9.20;99.90
59307;DHT22;47983;53.016;-2.260;2023-12-22T07:04:01;9.20;99.90
59307;DHT22;47983;53.016;-2.260;2023-12-22T07:06:31;9.30;99.90
59307;DHT22;47983;53.016;-2.260;2023-12-22T07:11:48;9.20;99.90
59307;DHT22;47983;53.016;-2.260;2023-12-22T07:14:17;9.20;99.90
59307;DHT22;47983;53.016;-2.260;2023-12-22T07:16:44;9.20;99.90
59307;DHT22;47983;53.016;-2.260;2023-12-22T07:19:13;9.10;99.90
59307;DHT22;47983;53.016;-2.260;2023-12-22T07:21:42;9.20;99.90
59307;DHT22;47983;53.016;-2.260;2023-12-22T07:24:13;9.20;99.90
59307;DHT22;47983;53.016;-2.260;2023-12-22T07:26:43;9.20;99.90
59307;DHT22;47983;53.016;-2.260;2023-12-22T07:29:13;9.20;99.90
59307;DHT22;47983;53.016;-2.260;2023-12-22T07:31:41;9.20;99.90
59307;DHT22;47983;53.016;-2.260;2023-12-22T07:34:09;9.10;99.90
59307;DHT22;47983;53.016;-2.260;2023-12-22T07:36:37;9.10;99.90
59307;DHT22;47983;53.016;-2.260;2023-12-22T07:39:17;9.10;99.90
59307;DHT22;47983;53.016;-2.260;2023-12-22T07:41:46;9.10;99.90
59307;DHT22;47983;53.016;-2.260;2023-12-22T07:44:14;9.10;99.90
59307;DHT22;47983;53.016;-2.260;2023-12-22T07:46:41;9.10;99.90
59307;DHT22;47983;53.016;-2.260;2023-12-22T07:49:10;9.10;99.90
59307;DHT22;47983;53.016;-2.260;2023-12-22T07:51:38;9.10;99.90
59307;DHT22;47983;53.016;-2.260;2023-12-22T07:54:08;9.10;99.90
59307;DHT22;47983;53.016;-2.260;2023-12-22T07:56:36;9.10;99.90
59307;DHT22;47983;53.016;-2.260;2023-12-22T07:59:04;9.10;99.90
59307;DHT22;47983;53.016;-2.260;2023-12-22T08:01:49;9.10;99.90
59307;DHT22;47983;53.016;-2.260;2023-12-22T08:04:18;9.10;99.90
59307;DHT22;47983;53.016;-2.260;2023-12-22T08:06:46;9.10;99.90
59307;DHT22;47983;53.016;-2.260;2023-12-22T08:09:14;9.10;99.90
59307;DHT22;47983;53.016;-2.260;2023-12-22T08:11:42;9.10;99.90
59307;DHT22;47983;53.016;-2.260;2023-12-22T08:14:10;9.10;99.90
59307;DHT22;47983;53.016;-2.260;2023-12-22T08:16:37;9.10;99.90
59307;DHT22;47983;53.016;-2.260;2023-12-22T08:19:05;9.10;99.90
59307;DHT22;47983;53.016;-2.260;2023-12-22T08:21:33;9.10;99.90
59307;DHT22;47983;53.016;-2.260;2023-12-22T08:24:12;9.10;99.90
59307;DHT22;47983;53.016;-2.260;2023-12-22T08:26:50;9.10;99.90
59307;DHT22;47983;53.016;-2.260;2023-12-22T08:29:19;9.10;99.90
59307;DHT22;47983;53.016;-2.260;2023-12-22T08:31:47;9.10;99.90
59307;DHT22;47983;53.016;-2.260;2023-12-22T08:34:15;9.10;99.90
59307;DHT22;47983;53.016;-2.260;2023-12-22T08:36:44;9.00;99.90
59307;DHT22;47983;53.016;-2.260;2023-12-22T08:39:12;9.10;99.90
59307;DHT22;47983;53.016;-2.260;2023-12-22T08:41:41;9.10;99.90
59307;DHT22;47983;53.016;-2.260;2023-12-22T08:44:09;9.10;99.90
59307;DHT22;47983;53.016;-2.260;2023-12-22T08:46:37;9.10;99.90
59307;DHT22;47983;53.016;-2.260;2023-12-22T08:49:06;9.20;99.90
59307;DHT22;47983;53.016;-2.260;2023-12-22T08:51:34;9.20;99.90
59307;DHT22;47983;53.016;-2.260;2023-12-22T08:54:02;9.20;99.90
59307;DHT22;47983;53.016;-2.260;2023-12-22T08:56:33;9.20;99.90
59307;DHT22;47983;53.016;-2.260;2023-12-22T08:59:03;9.20;99.90
59307;DHT22;47983;53.016;-2.260;2023-12-22T09:01:31;9.30;99.90
59307;DHT22;47983;53.016;-2.260;2023-12-22T09:03:59;9.30;99.90
59307;DHT22;47983;53.016;-2.260;2023-12-22T09:06:27;9.30;99.90
59307;DHT22;47983;53.016;-2.260;2023-12-22T09:08:55;9.30;99.90
59307;DHT22;47983;53.016;-2.260;2023-12-22T09:11:23;9.40;99.90
59307;DHT22;47983;53.016;-2.260;2023-12-22T09:13:51;9.40;99.90
59307;DHT22;47983;53.016;-2.260;2023-12-22T09:16:22;9.40;99.90
59307;DHT22;47983;53.016;-2.260;2023-12-22T09:18:50;9.40;99.90
59307;DHT22;47983;53.016;-2.260;2023-12-22T09:21:20;9.40;99.90
59307;DHT22;47983;53.016;-2.260;2023-12-22T09:23:47;9.40;99.90
59307;DHT22;47983;53.016;-2.260;2023-12-22T09:26:16;9.50;99.90
59307;DHT22;47983;53.016;-2.260;2023-12-22T09:28:46;9.50;99.90
59307;DHT22;47983;53.016;-2.260;2023-12-22T09:31:14;9.50;99.90
59307;DHT22;47983;53.016;-2.260;2023-12-22T09:33:42;9.60;99.90
59307;DHT22;47983;53.016;-2.260;2023-12-22T09:36:10;9.60;99.90
59307;DHT22;47983;53.016;-2.260;2023-12-22T09:38:39;9.60;99.90
59307;DHT22;47983;53.016;-2.260;2023-12-22T09:41:10;9.70;99.90
59307;DHT22;47983;53.016;-2.260;2023-12-22T09:43:39;9.70;99.90
59307;DHT22;47983;53.016;-2.260;2023-12-22T09:46:07;9.70;99.90
59307;DHT22;47983;53.016;-2.260;2023-12-22T09:48:37;9.70;99.90
59307;DHT22;47983;53.016;-2.260;2023-12-22T09:51:07;9.80;99.90
59307;DHT22;47983;53.016;-2.260;2023-12-22T09:53:38;9.80;99.90
59307;DHT22;47983;53.016;-2.260;2023-12-22T09:56:07;9.80;99.90
59307;DHT22;47983;53.016;-2.260;2023-12-22T09:58:36;9.80;99.90
59307;DHT22;47983;53.016;-2.260;2023-12-22T10:01:05;9.90;99.90
59307;DHT22;47983;53.016;-2.260;2023-12-22T10:03:37;9.80;99.90
59307;DHT22;47983;53.016;-2.260;2023-12-22T10:06:05;9.90;99.90
59307;DHT22;47983;53.016;-2.260;2023-12-22T10:08:33;9.90;99.90
59307;DHT22;47983;53.016;-2.260;2023-12-22T10:11:01;9.90;99.90
59307;DHT22;47983;53.016;-2.260;2023-12-22T10:13:33;9.90;99.90
59307;DHT22;47983;53.016;-2.260;2023-12-22T10:16:04;9.90;99.90
59307;DHT22;47983;53.016;-2.260;2023-12-22T10:18:33;10.00;99.90
59307;DHT22;47983;53.016;-2.260;2023-12-22T10:21:01;10.00;99.90
59307;DHT22;47983;53.016;-2.260;2023-12-22T10:23:29;10.10;99.90
59307;DHT22;47983;53.016;-2.260;2023-12-22T10:25:58;10.10;99.90
59307;DHT22;47983;53.016;-2.260;2023-12-22T10:28:29;10.10;99.90
59307;DHT22;47983;53.016;-2.260;2023-12-22T10:30:57;10.10;99.90
59307;DHT22;47983;53.016;-2.260;2023-12-22T10:33:32;10.20;99.90
59307;DHT22;47983;53.016;-2.260;2023-12-22T10:36:00;10.20;99.90
59307;DHT22;47983;53.016;-2.260;2023-12-22T10:38:37;10.20;99.90
59307;DHT22;47983;53.016;-2.260;2023-12-22T10:41:06;10.30;99.90
59307;DHT22;47983;53.016;-2.260;2023-12-22T10:43:38;10.40;99.90
59307;DHT22;47983;53.016;-2.260;2023-12-22T10:46:07;10.40;99.90
59307;DHT22;47983;53.016;-2.260;2023-12-22T10:48:40;10.40;99.90
59307;DHT22;47983;53.016;-2.260;2023-12-22T10:51:10;10.40;99.90
59307;DHT22;47983;53.016;-2.260;2023-12-22T10:53:41;10.30;99.90
59307;DHT22;47983;53.016;-2.260;2023-12-22T10:56:10;10.30;99.90
59307;DHT22;47983;53.016;-2.260;2023-12-22T10:58:39;10.30;99.90
59307;DHT22;47983;53.016;-2.260;2023-12-22T11:01:09;10.30;99.90
59307;DHT22;47983;53.016;-2.260;2023-12-22T11:03:39;10.20;99.90
59307;DHT22;47983;53.016;-2.260;2023-12-22T11:06:12;10.30;99.90
59307;DHT22;47983;53.016;-2.260;2023-12-22T11:08:44;10.30;99.90
59307;DHT22;47983;53.016;-2.260;2023-12-22T11:11:21;10.30;99.90
59307;DHT22;47983;53.016;-2.260;2023-12-22T11:13:53;10.30;99.90
59307;DHT22;47983;53.016;-2.260;2023-12-22T11:16:24;10.30;99.90
59307;DHT22;47983;53.016;-2.260;2023-12-22T11:18:56;10.30;99.90
59307;DHT22;47983;53.016;-2.260;2023-12-22T11:21:25;10.20;99.90
59307;DHT22;47983;53.016;-2.260;2023-12-22T11:23:54;10.20;99.90
59307;DHT22;47983;53.016;-2.260;2023-12-22T11:26:23;10.20;99.90
59307;DHT22;47983;53.016;-2.260;2023-12-22T11:28:52;10.20;99.90
59307;DHT22;47983;53.016;-2.260;2023-12-22T11:31:20;10.20;99.90
59307;DHT22;47983;53.016;-2.260;2023-12-22T11:33:50;10.20;99.90
59307;DHT22;47983;53.016;-2.260;2023-12-22T11:36:33;10.20;99.90
59307;DHT22;47983;53.016;-2.260;2023-12-22T11:39:03;10.30;99.90
59307;DHT22;47983;53.016;-2.260;2023-12-22T11:41:34;10.30;99.90
59307;DHT22;47983;53.016;-2.260;2023-12-22T11:44:04;10.30;99.90
59307;DHT22;47983;53.016;-2.260;2023-12-22T11:46:33;10.30;99.90
59307;DHT22;47983;53.016;-2.260;2023-12-22T11:49:04;10.30;99.90
59307;DHT22;47983;53.016;-2.260;2023-12-22T11:51:33;10.30;99.90
59307;DHT22;47983;53.016;-2.260;2023-12-22T11:54:04;10.30;99.90
59307;DHT22;47983;53.016;-2.260;2023-12-22T11:56:51;10.30;99.90
59307;DHT22;47983;53.016;-2.260;2023-12-22T11:59:20;10.30;99.90
59307;DHT22;47983;53.016;-2.260;2023-12-22T12:01:54;10.40;99.90
59307;DHT22;47983;53.016;-2.260;2023-12-22T12:04:23;10.40;99.90
59307;DHT22;47983;53.016;-2.260;2023-12-22T12:06:51;10.40;99.90
59307;DHT22;47983;53.016;-2.260;2023-12-22T12:09:45;10.30;99.90
59307;DHT22;47983;53.016;-2.260;2023-12-22T12:12:13;10.30;99.90
59307;DHT22;47983;53.016;-2.260;2023-12-22T12:14:42;10.20;99.90
59307;DHT22;47983;53.016;-2.260;2023-12-22T12:17:10;10.20;99.90
59307;DHT22;47983;53.016;-2.260;2023-12-22T12:19:39;10.20;99.90
59307;DHT22;47983;53.016;-2.260;2023-12-22T12:22:11;10.20;99.90
59307;DHT22;47983;53.016;-2.260;2023-12-22T12:24:41;10.30;99.90
59307;DHT22;47983;53.016;-2.260;2023-12-22T12:27:10;10.30;99.90
59307;DHT22;47983;53.016;-2.260;2023-12-22T12:29:39;10.30;99.90
59307;DHT22;47983;53.016;-2.260;2023-12-22T12:32:07;10.40;99.90
59307;DHT22;47983;53.016;-2.260;2023-12-22T12:34:36;10.40;99.90
59307;DHT22;47983;53.016;-2.260;2023-12-22T12:37:05;10.50;99.90
59307;DHT22;47983;53.016;-2.260;2023-12-22T12:39:34;10.50;99.90
59307;DHT22;47983;53.016;-2.260;2023-12-22T12:42:06;10.60;99.90
59307;DHT22;47983;53.016;-2.260;2023-12-22T12:44:35;10.60;99.90
59307;DHT22;47983;53.016;-2.260;2023-12-22T12:47:12;10.60;99.90
59307;DHT22;47983;53.016;-2.260;2023-12-22T12:49:41;10.60;99.90
59307;DHT22;47983;53.016;-2.260;2023-12-22T12:52:14;10.50;99.90
59307;DHT22;47983;53.016;-2.260;2023-12-22T12:54:43;10.50;99.90
59307;DHT22;47983;53.016;-2.260;2023-12-22T12:57:15;10.40;99.90
59307;DHT22;47983;53.016;-2.260;2023-12-22T12:59:49;10.40;99.90
59307;DHT22;47983;53.016;-2.260;2023-12-22T13:02:18;10.40;99.90
59307;DHT22;47983;53.016;-2.260;2023-12-22T13:04:47;10.30;99.90
59307;DHT22;47983;53.016;-2.260;2023-12-22T13:07:23;10.30;99.90
59307;DHT22;47983;53.016;-2.260;2023-12-22T13:09:52;10.30;99.90
59307;DHT22;47983;53.016;-2.260;2023-12-22T13:12:24;10.30;99.90
59307;DHT22;47983;53.016;-2.260;2023-12-22T13:14:54;10.20;99.90
59307;DHT22;47983;53.016;-2.260;2023-12-22T13:17:22;10.20;99.90
59307;DHT22;47983;53.016;-2.260;2023-12-22T13:19:50;10.30;99.90
59307;DHT22;47983;53.016;-2.260;2023-12-22T13:22:18;10.30;99.90
59307;DHT22;47983;53.016;-2.260;2023-12-22T13:24:58;10.30;99.90
59307;DHT22;47983;53.016;-2.260;2023-12-22T13:27:27;10.40;99.90
59307;DHT22;47983;53.016;-2.260;2023-12-22T13:29:55;10.40;99.90
59307;DHT22;47983;53.016;-2.260;2023-12-22T13:32:23;10.40;99.90
59307;DHT22;47983;53.016;-2.260;2023-12-22T13:34:57;10.40;99.90
59307;DHT22;47983;53.016;-2.260;2023-12-22T13:37:25;10.50;99.90
59307;DHT22;47983;53.016;-2.260;2023-12-22T13:39:58;10.50;99.90
59307;DHT22;47983;53.016;-2.260;2023-12-22T13:42:26;10.50;99.90
59307;DHT22;47983;53.016;-2.260;2023-12-22T13:44:55;10.50;99.90
59307;DHT22;47983;53.016;-2.260;2023-12-22T13:47:24;10.50;99.90
59307;DHT22;47983;53.016;-2.260;2023-12-22T13:49:56;10.50;99.90
59307;DHT22;47983;53.016;-2.260;2023-12-22T13:52:29;10.60;99.90
59307;DHT22;47983;53.016;-2.260;2023-12-22T13:55:00;10.60;99.90
59307;DHT22;47983;53.016;-2.260;2023-12-22T13:57:30;10.60;99.90
59307;DHT22;47983;53.016;-2.260;2023-12-22T13:59:59;10.60;99.90
59307;DHT22;47983;53.016;-2.260;2023-12-22T14:02:30;10.60;99.90
59307;DHT22;47983;53.016;-2.260;2023-12-22T14:04:58;10.60;99.90
59307;DHT22;47983;53.016;-2.260;2023-12-22T14:07:26;10.60;99.90
59307;DHT22;47983;53.016;-2.260;2023-12-22T14:09:54;10.60;99.90
59307;DHT22;47983;53.016;-2.260;2023-12-22T14:12:25;10.60;99.90
59307;DHT22;47983;53.016;-2.260;2023-12-22T14:14:59;10.60;99.90
59307;DHT22;47983;53.016;-2.260;2023-12-22T14:17:27;10.70;99.90
59307;DHT22;47983;53.016;-2.260;2023-12-22T14:19:58;10.70;99.90
59307;DHT22;47983;53.016;-2.260;2023-12-22T14:22:26;10.70;99.90
59307;DHT22;47983;53.016;-2.260;2023-12-22T14:24:55;10.70;99.90
59307;DHT22;47983;53.016;-2.260;2023-12-22T14:27:23;10.70;99.90
59307;DHT22;47983;53.016;-2.260;2023-12-22T14:29:51;10.70;99.90
59307;DHT22;47983;53.016;-2.260;2023-12-22T14:32:20;10.70;99.90
59307;DHT22;47983;53.016;-2.260;2023-12-22T14:34:48;10.70;99.90
59307;DHT22;47983;53.016;-2.260;2023-12-22T14:37:16;10.60;99.90
59307;DHT22;47983;53.016;-2.260;2023-12-22T14:39:45;10.70;99.90
59307;DHT22;47983;53.016;-2.260;2023-12-22T14:42:13;10.60;99.90
59307;DHT22;47983;53.016;-2.260;2023-12-22T14:44:42;10.70;99.90
59307;DHT22;47983;53.016;-2.260;2023-12-22T14:47:10;10.60;99.90
59307;DHT22;47983;53.016;-2.260;2023-12-22T14:49:41;10.60;99.90
59307;DHT22;47983;53.016;-2.260;2023-12-22T14:52:09;10.60;99.90
59307;DHT22;47983;53.016;-2.260;2023-12-22T14:54:37;10.60;99.90
59307;DHT22;47983;53.016;-2.260;2023-12-22T14:57:05;10.60;99.90
59307;DHT22;47983;53.016;-2.260;2023-12-22T14:59:34;10.60;99.90
59307;DHT22;47983;53.016;-2.260;2023-12-22T15:02:02;10.60;99.90
59307;DHT22;47983;53.016;-2.260;2023-12-22T15:04:32;10.50;99.90
59307;DHT22;47983;53.016;-2.260;2023-12-22T15:07:01;10.50;99.90
59307;DHT22;47983;53.016;-2.260;2023-12-22T15:09:31;10.60;99.90
59307;DHT22;47983;53.016;-2.260;2023-12-22T15:11:59;10.50;99.90
59307;DHT22;47983;53.016;-2.260;2023-12-22T15:14:26;10.50;99.90
59307;DHT22;47983;53.016;-2.260;2023-12-22T15:16:55;10.50;99.90
59307;DHT22;47983;53.016;-2.260;2023-12-22T15:19:23;10.40;99.90
59307;DHT22;47983;53.016;-2.260;2023-12-22T15:21:51;10.40;99.90
59307;DHT22;47983;53.016;-2.260;2023-12-22T15:24:19;10.40;99.90
59307;DHT22;47983;53.016;-2.260;2023-12-22T15:26:47;10.40;99.90
59307;DHT22;47983;53.016;-2.260;2023-12-22T15:29:15;10.40;99.90
59307;DHT22;47983;53.016;-2.260;2023-12-22T15:31:47;10.40;99.90
59307;DHT22;47983;53.016;-2.260;2023-12-22T15:34:17;10.40;99.90
59307;DHT22;47983;53.016;-2.260;2023-12-22T15:36:45;10.40;99.90
59307;DHT22;47983;53.016;-2.260;2023-12-22T15:39:14;10.40;99.90
59307;DHT22;47983;53.016;-2.260;2023-12-22T15:41:43;10.50;99.90